createdAt,value
2023-05-22T00:07:12.570Z,17.21
2023-05-22T00:27:12.565Z,16.52
2023-05-22T00:47:12.702Z,16.12
2023-05-22T01:07:14.539Z,15.66
2023-05-22T01:27:12.642Z,15.33
2023-05-22T01:47:12.684Z,15.03
2023-05-22T02:07:12.751Z,14.65
2023-05-22T02:27:12.784Z,14.33
2023-05-22T02:47:12.818Z,14.18
2023-05-22T03:07:12.941Z,13.9
2023-05-22T03:27:12.799Z,13.76
2023-05-22T03:47:13.014Z,13.63
2023-05-22T04:07:13.203Z,13.62
2023-05-22T04:27:12.913Z,13.86
2023-05-22T04:47:12.990Z,14.24
2023-05-22T05:07:13.248Z,14.65
2023-05-22T05:27:13.059Z,15.16
2023-05-22T05:47:13.050Z,15.76
2023-05-22T06:07:13.119Z,16.41
2023-05-22T06:27:13.168Z,17.23
2023-05-22T06:47:13.198Z,18.13
2023-05-22T07:07:13.226Z,19.25
2023-05-22T07:27:13.240Z,20.03
2023-05-22T07:47:13.338Z,20.97
2023-05-22T08:07:13.344Z,21.47
2023-05-22T08:27:13.366Z,22.12
2023-05-22T08:47:13.501Z,22.74
2023-05-22T09:07:13.348Z,23.41
2023-05-22T09:27:13.343Z,24.12
2023-05-22T09:47:13.562Z,25.74
2023-05-22T10:07:13.491Z,28.32
2023-05-22T10:47:13.482Z,30.25
2023-05-22T11:07:13.526Z,30.27
2023-05-22T11:27:13.627Z,31.85
2023-05-22T11:47:13.695Z,31.62
2023-05-22T12:07:13.543Z,32.99
2023-05-22T12:27:13.597Z,32.94
2023-05-22T12:47:13.673Z,33.85
2023-05-22T13:07:13.719Z,34.69
2023-05-22T13:27:13.857Z,34.77
2023-05-22T13:47:13.947Z,33.33
2023-05-22T14:07:13.937Z,34.32
2023-05-22T14:27:13.808Z,33.29
2023-05-22T14:47:14.873Z,31.43
2023-05-22T15:07:13.908Z,30.93
2023-05-22T15:27:13.843Z,30.23
2023-05-22T15:47:13.933Z,29.12
2023-05-22T16:07:13.889Z,28.87
2023-05-22T16:27:13.971Z,28.39
2023-05-22T16:47:14.124Z,28.15
2023-05-22T17:07:14.038Z,27.51
2023-05-22T17:27:20.702Z,25.86
2023-05-22T17:47:14.070Z,25.25
2023-05-22T18:07:14.138Z,24.55
2023-05-22T18:47:14.143Z,23.46
2023-05-22T19:07:14.130Z,23
2023-05-22T19:27:14.209Z,22.58
2023-05-22T19:47:14.363Z,21.7
2023-05-22T20:07:14.911Z,21.38
2023-05-22T20:27:14.222Z,20.88
2023-05-22T20:47:14.305Z,20.73
2023-05-22T21:07:19.076Z,20.43
2023-05-22T21:27:14.488Z,19.82
2023-05-22T21:47:14.481Z,19.28
2023-05-22T22:07:14.654Z,18.8
2023-05-22T22:27:14.554Z,18.26
2023-05-22T22:47:14.443Z,18.03
2023-05-22T23:07:14.539Z,18.31
2023-05-22T23:27:15.318Z,18.26
2023-05-22T23:47:15.039Z,18.33
